Portada
METAR-TAF:

METAR-TAF

Aeroports :

Gwalior, Índia

latitud: 26-17-36N, longitud: 78-13-40E, altitud: 188 m

METAR: manca

Hora: 19:14 (13:44 UTC)

Pronòstic

L'informe es va fer fa 10 hores i 14 minuts, a les 03:30 UTC
Pronòstic vàlid del 06 a les 06 UTC al 06 a les 18 UTC
Vent 5 kt del Oest
Visibilitat: 2500 m
calitja
Evolucionant progressivament
l' 06 a les 08 UTC al 06 a les 09 UTC
Vent 5 kt del Oest/Nord-Oest
Visibilitat: 3500 m
calitja
Evolucionant progressivament
l' 06 a les 09 UTC al 06 a les 10 UTC
Vent 5 kt del Nord-Oest
Visibilitat: 4000 m
calitja
Evolucionant progressivament
l' 06 a les 12 UTC al 06 a les 14 UTC
Vent 2 kt amb direcció variable
Visibilitat: 3000 m
boirina
Evolucionant progressivament
l' 06 a les 16 UTC al 06 a les 18 UTC
Vent 2 kt amb direcció variable
Visibilitat: 2000 m
boirina

TAF: VIGR 060330Z 0606/0618 28005KT 2500 HZ NSC BECMG 0608/0609 30005KT 3500 HZ NSC BECMG 0609/0610 31005KT 4000 HZ NSC BECMG 0612/0614 VRB02KT 3000 BR NSC BECMG 0616/0618 VRB02KT 2000 BR NSC

Observacions i pronòstics meteorològics de més de 4000 aeroports (METAR i TAF).

Les estacions disponibles són els punts grocs i vermells al mapa.

Posi el ratolí al punt desitjat per veure el nom de l'estació.

Feu clic per veure les observacions i els pronòstics meteorològics.

Per canviar el mapa: feu clic els botons verds amb una creu de color negre per apropar; al botó verd amb un guió per allunyar la imatge; o en les fletxes verdes per a mapes adjacents.


METAR-TAF: